Cook, MN

9:35 PM CST on February 12, 2016 (GMT -0600)
Cook Municipal

Weather History for KCQM - October, 2012

Change the Weather History Date:

Tuesday, October 9, 2012

  Actual Average Record
Temperature  
Mean Temperature 34 °F -  
Max Temperature 41 °F 54 °F 75 °F (2003)
Min Temperature 28 °F 34 °F 19 °F (2000)
Degree Days  
Heating Degree Days 30    
Moisture  
Dew Point 34 °F    
Average Humidity 89    
Maximum Humidity 100    
Minimum Humidity 70    
Precipitation  
Precipitation 0.01 in - - ()
Sea Level Pressure  
Sea Level Pressure 29.68 in    
Wind  
Wind Speed 7 mph (West)    
Max Wind Speed 15 mph    
Max Gust Speed 23 mph    
Visibility 9 miles    
Events Rain , Snow    
Averages and records for this station are not official NWS values.
T = Trace of Precipitation, MM = Missing Value Source: NWS Daily Summary

Daily Weather History Graph

Daily Weather History Graph

Search for Another Location

Airport or City:

Trip Planner

Search our weather history database for the weather conditions in past years. The results will help you decide how hot, cold, wet, or windy it might be!

Date:

Astronomy

Oct. 09, 2012 Rise Set
Actual Time 7:21 AM CDT 6:32 PM CDT
Civil Twilight 6:50 AM CDT 7:03 PM CDT
Nautical Twilight 6:15 AM CDT 7:39 PM CDT
Astronomical Twilight 5:39 AM CDT 8:15 PM CDT
Moon 12:33 AM CDT (10/9) 3:23 PM CDT (10/9)
Length of Visible Light 12h 13m
Length of Day
11h 11m
Last Quarter, 36% of the Moon is Illuminated
Oct 9
Last Quarter
Oct 15
New
Oct 21
First Quarter
Oct 29
Full
Nov 6
Last Quarter

Hourly Weather History & Observations

Time (CDT) Temp. Windchill Dew Point Humidity Pressure Visibility Wind Dir Wind Speed Gust Speed Precip Events Conditions
12:17 AM 39.2 °F 35.0 °F 37.4 °F 93% 29.59 in 10.0 mi West 5.8 mph - N/A   Overcast
12:37 AM 39.2 °F 37.0 °F 37.4 °F 93% 29.59 in 10.0 mi WSW 3.5 mph - N/A   Overcast
12:56 AM 39.2 °F 37.0 °F 37.4 °F 93% 29.59 in 10.0 mi SW 3.5 mph - N/A   Overcast
1:17 AM 39.2 °F - 37.4 °F 93% 29.59 in 7.0 mi Calm Calm - N/A   Drizzle
1:56 AM 39.2 °F 35.9 °F 37.4 °F 93% 29.59 in 10.0 mi SW 4.6 mph - N/A   Overcast
2:17 AM 39.2 °F 35.9 °F 39.2 °F 100% 29.59 in 10.0 mi SW 4.6 mph - N/A   Overcast
2:56 AM 41.0 °F 35.8 °F 39.2 °F 93% 29.59 in 10.0 mi WSW 8.1 mph - N/A   Overcast
3:17 AM 41.0 °F 37.1 °F 39.2 °F 93% 29.59 in 10.0 mi WSW 5.8 mph - N/A   Overcast
3:37 AM 41.0 °F 37.1 °F 39.2 °F 93% 29.58 in 10.0 mi SW 5.8 mph - N/A   Overcast
3:56 AM 39.2 °F 37.0 °F 37.4 °F 93% 29.58 in 10.0 mi SW 3.5 mph - N/A   Mostly Cloudy
4:17 AM 39.2 °F 35.0 °F 37.4 °F 93% 29.59 in 10.0 mi WSW 5.8 mph - N/A   Mostly Cloudy
4:37 AM 39.2 °F 35.0 °F 37.4 °F 93% 29.59 in 10.0 mi SW 5.8 mph - N/A   Overcast
4:56 AM 39.2 °F 37.0 °F 37.4 °F 93% 29.59 in 10.0 mi SW 3.5 mph - N/A   Overcast
5:17 AM 39.2 °F 35.0 °F 37.4 °F 93% 29.59 in 10.0 mi SW 5.8 mph - N/A   Overcast
5:37 AM 39.2 °F 35.9 °F 37.4 °F 93% 29.59 in 10.0 mi SW 4.6 mph - N/A   Overcast
5:57 AM 39.2 °F 34.2 °F 37.4 °F 93% 29.59 in 10.0 mi SSW 6.9 mph - N/A   Overcast
6:17 AM 39.2 °F 35.0 °F 37.4 °F 93% 29.59 in 10.0 mi SW 5.8 mph - N/A   Overcast
6:36 AM 39.2 °F 35.0 °F 37.4 °F 93% 29.60 in 10.0 mi WSW 5.8 mph - N/A   Overcast
6:57 AM 37.4 °F 33.8 °F 35.6 °F 93% 29.60 in 10.0 mi SW 4.6 mph - N/A   Overcast
7:17 AM 37.4 °F 33.8 °F 35.6 °F 93% 29.60 in 10.0 mi SW 4.6 mph - N/A   Overcast
7:36 AM 37.4 °F 32.8 °F 35.6 °F 93% 29.60 in 10.0 mi SW 5.8 mph - N/A   Overcast
7:57 AM 37.4 °F 32.1 °F 35.6 °F 93% 29.60 in 10.0 mi SW 6.9 mph - N/A   Mostly Cloudy
8:17 AM 37.4 °F 32.8 °F 35.6 °F 93% 29.61 in 10.0 mi WSW 5.8 mph - N/A   Mostly Cloudy
8:36 AM 37.4 °F 31.4 °F 35.6 °F 93% 29.61 in 10.0 mi SW 8.1 mph - N/A   Overcast
8:57 AM 39.2 °F 33.6 °F 35.6 °F 87% 29.61 in 10.0 mi SW 8.1 mph - N/A   Overcast
9:17 AM 39.2 °F 33.0 °F 35.6 °F 87% 29.62 in 10.0 mi WSW 9.2 mph - N/A   Overcast
9:36 AM 39.2 °F 33.0 °F 35.6 °F 87% 29.62 in 10.0 mi WSW 9.2 mph - N/A   Drizzle
9:57 AM 37.4 °F 31.4 °F 35.6 °F 93% 29.62 in 10.0 mi WSW 8.1 mph - N/A   Light Drizzle
10:17 AM 37.4 °F 29.8 °F 35.6 °F 93% 29.63 in 10.0 mi WSW 11.5 mph - N/A   Overcast
10:36 AM 39.2 °F 33.6 °F 33.8 °F 81% 29.63 in 10.0 mi WSW 8.1 mph - N/A   Overcast
10:57 AM 39.2 °F 32.5 °F 35.6 °F 87% 29.63 in 10.0 mi SW 10.4 mph - N/A   Overcast
11:17 AM 39.2 °F 31.2 °F 33.8 °F 81% 29.63 in 10.0 mi WSW 13.8 mph - N/A   Overcast
11:36 AM 39.2 °F 31.6 °F 33.8 °F 81% 29.63 in 10.0 mi WSW 12.7 mph 16.1 mph N/A   Overcast
11:57 AM 39.2 °F 32.0 °F 33.8 °F 81% 29.63 in 10.0 mi WSW 11.5 mph 18.4 mph N/A   Overcast
12:17 PM 41.0 °F 34.3 °F 33.8 °F 76% 29.63 in 10.0 mi WSW 11.5 mph 20.7 mph N/A   Overcast
12:36 PM 39.2 °F 32.5 °F 33.8 °F 81% 29.64 in 10.0 mi WSW 10.4 mph 17.3 mph N/A   Overcast
12:57 PM 39.2 °F 30.8 °F 33.8 °F 81% 29.64 in 5.0 mi West 15.0 mph 19.6 mph N/A   Overcast
1:16 PM 37.4 °F 29.3 °F 35.6 °F 93% 29.65 in 10.0 mi West 12.7 mph - N/A   Overcast
1:36 PM 39.2 °F 33.0 °F 35.6 °F 87% 29.65 in 10.0 mi West 9.2 mph 17.3 mph N/A   Light Drizzle
1:57 PM 37.4 °F 29.8 °F 35.6 °F 93% 29.65 in 4.0 mi WNW 11.5 mph 19.6 mph N/A Rain Light Rain
2:16 PM 39.2 °F 33.6 °F 37.4 °F 93% 29.66 in 10.0 mi WNW 8.1 mph - N/A   Overcast
2:36 PM 39.2 °F 32.0 °F 33.8 °F 81% 29.66 in 10.0 mi WNW 11.5 mph 17.3 mph N/A   Overcast
2:57 PM 37.4 °F 31.4 °F 33.8 °F 87% 29.68 in 10.0 mi NW 8.1 mph - N/A   Overcast
3:16 PM 37.4 °F 32.1 °F 33.8 °F 87% 29.68 in 7.0 mi West 6.9 mph 21.9 mph N/A Rain Rain
3:36 PM 41.0 °F 33.5 °F 35.6 °F 81% 29.69 in 10.0 mi West 13.8 mph - N/A   Overcast
3:57 PM 39.2 °F 33.0 °F 30.2 °F 70% 29.69 in 10.0 mi WNW 9.2 mph 23.0 mph N/A   Mostly Cloudy
4:16 PM 39.2 °F 31.6 °F 32.0 °F 75% 29.71 in 5.0 mi WNW 12.7 mph 19.6 mph 0.01 in   Mostly Cloudy
4:36 PM 37.4 °F 29.8 °F 32.0 °F 81% 29.71 in 7.0 mi WNW 11.5 mph 20.7 mph 0.01 in   Drizzle
4:57 PM 37.4 °F 31.4 °F 30.2 °F 75% 29.73 in 10.0 mi WNW 8.1 mph 18.4 mph N/A   Overcast
5:16 PM 35.6 °F 28.0 °F 30.2 °F 81% 29.74 in 7.0 mi WNW 10.4 mph 23.0 mph N/A   Overcast
5:36 PM 35.6 °F 30.7 °F 30.2 °F 81% 29.74 in 10.0 mi WNW 5.8 mph - N/A   Mostly Cloudy
5:57 PM 35.6 °F 28.6 °F 32.0 °F 87% 29.76 in 7.0 mi WNW 9.2 mph - N/A   Drizzle
6:16 PM 35.6 °F 29.2 °F 32.0 °F 87% 29.77 in 10.0 mi NNW 8.1 mph - N/A   Overcast
6:37 PM 33.8 °F 25.8 °F 30.2 °F 87% 29.78 in 2.0 mi NW 10.4 mph 18.4 mph N/A Snow Light Snow
6:56 PM 33.8 °F 27.0 °F 30.2 °F 87% 29.79 in 10.0 mi WNW 8.1 mph - N/A   Mostly Cloudy
7:17 PM 33.8 °F 27.7 °F 30.2 °F 87% 29.80 in 10.0 mi NW 6.9 mph - N/A   Scattered Clouds
7:37 PM 33.8 °F 29.6 °F 30.2 °F 87% 29.81 in 7.0 mi WNW 4.6 mph - N/A Snow Light Snow
7:56 PM 33.8 °F 28.6 °F 30.2 °F 87% 29.82 in 10.0 mi WNW 5.8 mph - N/A Snow Light Snow
8:17 PM 32.0 °F 27.5 °F 30.2 °F 93% 29.83 in 10.0 mi WNW 4.6 mph - N/A Snow Light Snow
8:36 PM 32.0 °F 27.5 °F 30.2 °F 93% 29.83 in 10.0 mi WNW 4.6 mph - N/A   Overcast
8:57 PM 32.0 °F 25.6 °F 30.2 °F 93% 29.84 in 10.0 mi WNW 6.9 mph - N/A   Overcast
9:16 PM 32.0 °F 26.4 °F 28.4 °F 87% 29.85 in 10.0 mi WNW 5.8 mph - N/A   Overcast
9:37 PM 30.2 °F 25.4 °F 28.4 °F 93% 29.85 in 10.0 mi WNW 4.6 mph - N/A   Scattered Clouds
9:57 PM 30.2 °F 24.3 °F 28.4 °F 93% 29.86 in 10.0 mi West 5.8 mph - N/A   Scattered Clouds
10:16 PM 30.2 °F 25.4 °F 28.4 °F 93% 29.86 in 10.0 mi West 4.6 mph - N/A   Scattered Clouds
10:37 PM 28.4 °F 23.3 °F 28.4 °F 100% 29.86 in 10.0 mi West 4.6 mph - N/A   Scattered Clouds
10:57 PM 30.2 °F 24.3 °F 28.4 °F 93% 29.87 in 10.0 mi West 5.8 mph - N/A   Overcast
11:16 PM 30.2 °F 25.4 °F 28.4 °F 93% 29.87 in 10.0 mi West 4.6 mph - N/A   Overcast
11:37 PM 30.2 °F 25.4 °F 28.4 °F 93% 29.87 in 10.0 mi West 4.6 mph - N/A   Overcast
11:56 PM 30.2 °F 24.3 °F 28.4 °F 93% 29.87 in 10.0 mi West 5.8 mph - N/A   Overcast